Time;durP1;ratioP1;P1;durP2;ratioP2;P2;SDS_P1;SDS_P2;PMS_P1;PMS_P2;Temp;Humidity;BMP_temperature;BMP_pressure;BME280_temperature;BME280_humidity;BME280_pressure;Samples;Min_cycle;Max_cycle;Signal;HPM_P1;HPM_P2
2022/11/27 09:16:44;;;;;;;12.90;8.73;;;;;;;1.87;100.00;99982.03;5143270;27;20561;-77
2022/11/27 09:19:11;;;;;;;11.40;7.97;;;;;;;2.40;100.00;99971.88;5125682;27;39176;-77
2022/11/27 09:21:39;;;;;;;10.00;8.30;;;;;;;2.86;100.00;99960.84;5109968;28;41669;-80
2022/11/27 09:24:07;;;;;;;10.07;8.57;;;;;;;3.19;100.00;99962.13;5125783;27;43384;-78
2022/11/27 09:26:35;;;;;;;10.80;8.10;;;;;;;3.43;100.00;99955.63;5108677;28;40959;-80
2022/11/27 09:29:02;;;;;;;10.80;8.10;;;;;;;3.54;100.00;99961.56;5108870;28;40156;-79
2022/11/27 09:31:30;;;;;;;10.47;7.67;;;;;;;3.64;100.00;99959.66;5125880;27;40619;-78
2022/11/27 09:33:59;;;;;;;9.97;7.43;;;;;;;3.78;100.00;99968.13;5091531;28;41579;-77
2022/11/27 09:36:27;;;;;;;8.20;6.57;;;;;;;3.97;99.81;99975.63;5108174;28;43071;-80
2022/11/27 09:38:54;;;;;;;9.23;7.33;;;;;;;4.15;98.64;99968.34;5142912;27;40967;-78
2022/11/27 09:41:38;;;;;;;9.67;7.53;;;;;;;4.38;97.07;99966.13;5091144;28;41975;-78
2022/11/27 09:44:17;;;;;;;8.23;7.30;;;;;;;4.55;95.44;99964.06;5106459;28;42865;-77
2022/11/27 09:46:45;;;;;;;9.70;8.00;;;;;;;4.74;94.12;99950.53;5139926;27;42380;-78
2022/11/27 09:49:20;;;;;;;11.27;7.07;;;;;;;4.79;92.58;99954.81;5142662;27;39899;-79
2022/11/27 09:51:53;;;;;;;11.43;8.67;;;;;;;4.89;91.78;99944.97;5125456;27;40939;-79
2022/11/27 09:54:25;;;;;;;13.13;8.57;;;;;;;4.93;91.65;99931.75;5125542;27;43018;-80
2022/11/27 09:56:55;;;;;;;13.90;8.57;;;;;;;4.96;91.43;99938.66;5106210;28;42242;-78
2022/11/27 09:59:30;;;;;;;9.60;7.83;;;;;;;4.98;91.03;99931.63;5143031;27;39738;-77
2022/11/27 10:01:58;;;;;;;11.93;7.47;;;;;;;5.06;90.31;99927.09;5105601;28;41432;-80
2022/11/27 10:04:27;;;;;;;11.07;7.87;;;;;;;5.07;89.83;99920.91;5090201;28;42943;-81
2022/11/27 10:07:13;;;;;;;10.33;7.93;;;;;;;5.21;89.92;99918.81;5109078;28;42286;-79
2022/11/27 10:09:57;;;;;;;11.77;7.90;;;;;;;5.28;89.56;99912.53;5091208;28;38880;-80
2022/11/27 10:12:35;;;;;;;10.37;8.37;;;;;;;5.28;88.45;99904.66;5106688;28;41623;-79
2022/11/27 10:15:10;;;;;;;10.80;8.40;;;;;;;5.34;88.97;99898.38;5107991;28;43211;-80
2022/11/27 10:17:43;;;;;;;12.33;8.20;;;;;;;5.42;88.48;99906.94;5107881;28;42549;-80
2022/11/27 10:20:27;;;;;;;11.63;8.77;;;;;;;5.35;88.44;99879.97;5109432;28;38776;-79
2022/11/27 10:23:02;;;;;;;10.80;9.03;;;;;;;5.55;87.49;99916.25;5106672;28;42488;-79
2022/11/27 10:25:36;;;;;;;11.83;9.43;;;;;;;5.60;87.91;99921.38;5107564;28;41917;-80
2022/11/27 10:28:14;;;;;;;10.53;7.80;;;;;;;5.57;88.13;99916.19;5124882;27;41957;-78
2022/11/27 10:30:49;;;;;;;13.07;9.23;;;;;;;5.73;87.39;99917.53;5093496;28;38713;-79
2022/11/27 10:33:22;;;;;;;12.60;10.00;;;;;;;5.81;87.26;99910.28;5124953;27;41536;-78
2022/11/27 10:35:52;;;;;;;13.13;9.43;;;;;;;5.91;87.55;99901.31;5093851;28;42938;-81
2022/11/27 10:38:23;;;;;;;14.07;9.77;;;;;;;5.89;86.70;99892.63;5093577;28;41888;-79
2022/11/27 10:40:59;;;;;;;14.23;10.03;;;;;;;6.08;86.36;99898.22;5126984;27;40986;-80
2022/11/27 10:43:26;;;;;;;14.30;10.47;;;;;;;6.23;86.09;99881.16;5076886;28;42285;-80
2022/11/27 10:45:57;;;;;;;12.17;9.50;;;;;;;6.26;85.47;99860.88;5093377;28;43738;-80
2022/11/27 10:48:26;;;;;;;13.17;10.33;;;;;;;6.48;84.93;99876.91;5090578;28;43071;-80
2022/11/27 10:50:56;;;;;;;11.87;9.90;;;;;;;6.43;84.91;99836.69;5093249;28;40156;-79
2022/11/27 10:53:29;;;;;;;14.27;10.40;;;;;;;6.62;83.57;99864.19;5076531;28;40782;-80
2022/11/27 10:56:22;;;;;;;13.70;10.33;;;;;;;6.60;83.36;99838.81;5092559;28;44678;-81
2022/11/27 10:58:55;;;;;;;11.10;9.13;;;;;;;6.57;83.35;99818.72;5093136;28;41177;-79
2022/11/27 11:01:25;;;;;;;12.43;10.70;;;;;;;6.62;83.88;99827.34;5093022;28;39562;-80
2022/11/27 11:04:05;;;;;;;12.20;9.93;;;;;;;6.71;83.68;99834.94;5092956;28;40289;-78
2022/11/27 11:06:40;;;;;;;12.13;10.03;;;;;;;6.70;82.81;99841.13;5109985;28;43519;-80
2022/11/27 11:09:15;;;;;;;15.53;11.20;;;;;;;6.70;83.31;99835.84;5090087;28;42220;-78
2022/11/27 11:11:43;;;;;;;13.20;10.10;;;;;;;6.66;83.09;99815.81;5093272;28;38770;-81
2022/11/27 11:14:19;;;;;;;13.73;10.40;;;;;;;6.77;83.69;99821.59;5075612;28;43174;-79
2022/11/27 11:16:47;;;;;;;14.20;10.00;;;;;;;6.73;83.24;99793.66;5075984;28;41814;-79
2022/11/27 11:19:23;;;;;;;14.70;9.53;;;;;;;6.87;82.64;99801.09;5075561;28;41082;-79
2022/11/27 11:21:53;;;;;;;13.23;10.43;;;;;;;7.01;82.37;99792.75;5089849;28;39935;-81
2022/11/27 11:24:26;;;;;;;13.67;10.60;;;;;;;7.24;82.42;99806.03;5075959;28;40659;-79
2022/11/27 11:26:57;;;;;;;13.07;9.83;;;;;;;7.49;82.05;99801.63;5089595;28;43608;-79
2022/11/27 11:29:31;;;;;;;11.37;9.33;;;;;;;7.72;81.73;99798.19;5109681;28;41239;-79
2022/11/27 11:32:06;;;;;;;11.30;9.37;;;;;;;7.81;81.52;99784.66;5109866;28;39243;-81
2022/11/27 11:34:35;;;;;;;12.63;10.57;;;;;;;8.00;80.89;99795.41;5091024;28;42790;-78
2022/11/27 11:37:07;;;;;;;12.17;10.20;;;;;;;8.09;81.05;99791.56;5092393;28;41895;-81
2022/11/27 11:39:43;;;;;;;11.83;10.50;;;;;;;8.09;79.78;99787.13;5074647;28;41391;-78
2022/11/27 11:42:19;;;;;;;13.60;10.30;;;;;;;8.11;79.45;99772.13;5075575;28;39477;-81
2022/11/27 11:44:51;;;;;;;13.63;10.80;;;;;;;8.30;79.45;99773.13;5090048;28;41749;-78
2022/11/27 11:47:21;;;;;;;11.90;10.00;;;;;;;8.61;79.10;99786.03;5075501;28;42851;-81
2022/11/27 11:49:50;;;;;;;11.07;9.17;;;;;;;8.79;79.08;99778.28;5075410;28;41757;-79
2022/11/27 11:52:29;;;;;;;11.57;9.67;;;;;;;8.89;78.39;99775.22;5075525;28;39890;-80
2022/11/27 11:55:04;;;;;;;9.93;8.37;;;;;;;9.06;77.84;99786.84;5092080;28;40296;-79
2022/11/27 11:58:10;;;;;;;13.30;9.40;;;;;;;8.95;75.64;99774.09;5123277;27;42820;-80
2022/11/27 12:00:43;;;;;;;11.37;9.60;;;;;;;9.22;75.69;99782.66;5019002;28;42122;-81
2022/11/27 12:03:26;;;;;;;10.50;8.73;;;;;;;9.40;75.59;99776.56;5092544;28;38499;-78
2022/11/27 12:06:11;;;;;;;12.80;9.27;;;;;;;9.56;73.56;99777.63;5092329;28;41476;-82
2022/11/27 12:09:00;;;;;;;10.80;9.47;;;;;;;10.17;73.60;99763.44;5075461;28;41739;-81
2022/11/27 12:11:39;;;;;;;12.00;9.93;;;;;;;11.22;70.56;99735.34;5093710;28;42287;-82
2022/11/27 12:14:16;;;;;;;9.97;8.33;;;;;;;12.12;68.50;99759.78;5109438;28;38807;-82
2022/11/27 12:16:57;;;;;;;8.73;7.87;;;;;;;11.98;65.52;99762.34;5075415;28;42267;-82
2022/11/27 12:19:46;;;;;;;8.53;7.47;;;;;;;11.67;66.58;99758.63;5075358;28;41745;-81
2022/11/27 12:22:24;;;;;;;9.40;7.83;;;;;;;11.42;66.65;99755.53;5089096;28;42375;-79
2022/11/27 12:25:09;;;;;;;7.53;6.83;;;;;;;11.16;66.46;99749.75;5091075;28;39839;-80
2022/11/27 12:27:52;;;;;;;9.83;6.73;;;;;;;10.92;66.84;99735.09;5075208;28;41225;-82
2022/11/27 12:30:23;;;;;;;8.73;7.93;;;;;;;10.76;66.10;99736.78;5075120;28;43402;-80
2022/11/27 12:33:09;;;;;;;8.60;7.27;;;;;;;10.67;67.62;99745.16;5092185;28;42281;-81
2022/11/27 12:35:43;;;;;;;7.83;6.80;;;;;;;10.34;66.26;99740.56;5125123;27;40619;-82
2022/11/27 12:38:27;;;;;;;7.43;6.67;;;;;;;10.23;66.84;99758.75;5092021;28;41222;-79
2022/11/27 12:41:12;;;;;;;7.27;6.53;;;;;;;9.89;68.16;99726.81;5108507;28;44860;-82
2022/11/27 12:43:45;;;;;;;8.53;6.67;;;;;;;9.93;67.84;99752.19;5089712;28;42161;-81
2022/11/27 12:46:19;;;;;;;7.13;6.47;;;;;;;9.88;68.49;99744.47;5108916;28;38675;-80
2022/11/27 12:48:53;;;;;;;7.67;6.87;;;;;;;9.86;68.30;99729.59;5074965;28;40605;-80
2022/11/27 12:51:25;;;;;;;7.13;6.43;;;;;;;9.88;67.90;99725.09;5091405;28;42607;-80
2022/11/27 12:53:59;;;;;;;7.50;5.90;;;;;;;9.86;67.81;99705.78;5091871;28;42275;-82
2022/11/27 12:56:32;;;;;;;7.27;6.27;;;;;;;10.01;67.21;99721.78;5091092;28;39734;-81
2022/11/27 12:59:09;;;;;;;7.00;6.23;;;;;;;10.07;67.64;99697.69;5089408;28;41956;-81
2022/11/27 13:01:42;;;;;;;7.77;6.53;;;;;;;10.36;67.92;99709.59;5091596;28;42013;-79
2022/11/27 13:04:19;;;;;;;7.50;6.27;;;;;;;10.50;67.98;99708.06;5088162;28;42740;-81
2022/11/27 13:06:55;;;;;;;7.97;6.30;;;;;;;10.49;66.33;99711.66;5088458;28;40653;-80
2022/11/27 13:09:31;;;;;;;12.67;6.97;;;;;;;10.49;66.02;99722.25;5074390;28;41853;-82
2022/11/27 13:12:01;;;;;;;9.10;6.73;;;;;;;10.43;66.19;99716.28;5074728;28;42917;-82
2022/11/27 13:14:34;;;;;;;6.93;6.23;;;;;;;10.29;65.91;99697.56;5089653;28;42369;-83
2022/11/27 13:17:05;;;;;;;7.73;5.80;;;;;;;10.17;65.47;99676.06;5074157;28;38724;-81
2022/11/27 13:19:38;;;;;;;6.60;5.57;;;;;;;10.07;65.43;99673.03;5074165;28;40935;-81
2022/11/27 13:22:09;;;;;;;6.20;5.60;;;;;;;10.02;65.92;99675.00;5074292;28;42929;-79
2022/11/27 13:24:37;;;;;;;7.73;7.03;;;;;;;9.99;65.81;99685.75;5074152;28;43784;-80
2022/11/27 13:27:10;;;;;;;7.40;6.53;;;;;;;9.91;66.49;99678.16;5074089;28;38770;-81
2022/11/27 13:29:44;;;;;;;8.17;6.53;;;;;;;9.75;65.92;99671.03;5089203;28;42659;-81
2022/11/27 13:32:20;;;;;;;8.77;5.67;;;;;;;9.59;66.96;99650.56;5074209;28;42079;-83
2022/11/27 13:34:49;;;;;;;6.10;5.43;;;;;;;9.75;67.30;99655.16;5108201;28;41155;-82
2022/11/27 13:37:30;;;;;;;7.87;6.87;;;;;;;9.61;66.92;99661.94;5124798;27;39909;-82
2022/11/27 13:40:05;;;;;;;8.73;7.27;;;;;;;9.47;67.36;99656.41;5122238;27;42132;-81
2022/11/27 13:42:36;;;;;;;9.73;8.00;;;;;;;9.11;67.56;99629.84;5108553;28;42222;-82
2022/11/27 13:45:09;;;;;;;9.03;7.90;;;;;;;9.17;68.21;99639.28;5074315;28;42470;-82
2022/11/27 13:47:40;;;;;;;9.23;7.37;;;;;;;9.18;68.38;99651.56;5108041;28;38634;-81
2022/11/27 13:50:11;;;;;;;8.67;7.03;;;;;;;9.01;68.87;99625.91;5092320;28;42540;-82
2022/11/27 13:52:53;;;;;;;7.87;6.90;;;;;;;8.97;69.23;99648.06;5073878;28;41817;-82
2022/11/27 13:55:27;;;;;;;7.27;5.90;;;;;;;8.85;69.51;99641.53;5121942;27;43230;-82
2022/11/27 13:57:58;;;;;;;7.27;6.30;;;;;;;8.74;69.76;99627.94;5090300;28;40947;-81
2022/11/27 14:00:37;;;;;;;8.97;7.47;;;;;;;8.66;69.86;99624.75;5074317;28;40909;-83
2022/11/27 14:03:08;;;;;;;8.00;5.67;;;;;;;8.27;70.56;99558.66;5077068;28;43150;-80
2022/11/27 14:05:40;;;;;;;9.80;6.73;;;;;;;8.52;71.00;99606.03;5077160;28;41530;-80
2022/11/27 14:08:20;;;;;;;8.90;7.17;;;;;;;8.47;71.37;99607.97;5094566;28;38798;-81
2022/11/27 14:10:59;;;;;;;10.77;7.50;;;;;;;8.14;71.74;99568.84;5111497;28;41840;-82
2022/11/27 14:13:38;;;;;;;9.00;6.97;;;;;;;8.39;71.61;99605.69;5095386;28;42510;-81
2022/11/27 14:16:29;;;;;;;8.07;6.57;;;;;;;8.19;71.71;99587.13;5094330;28;42446;-79
2022/11/27 14:18:58;;;;;;;10.37;7.53;;;;;;;8.19;72.12;99603.81;5092126;28;39744;-81
2022/11/27 14:21:41;;;;;;;9.07;6.87;;;;;;;8.07;72.65;99588.47;5076873;28;41994;-80
2022/11/27 14:24:27;;;;;;;7.77;6.93;;;;;;;8.08;72.72;99598.09;5093900;28;43121;-82
2022/11/27 14:26:55;;;;;;;9.40;6.87;;;;;;;7.99;72.92;99577.38;5093779;28;42705;-82
2022/11/27 14:29:28;;;;;;;8.73;7.10;;;;;;;8.07;73.17;99593.75;5094731;28;39761;-80
2022/11/27 14:31:58;;;;;;;9.43;7.37;;;;;;;8.07;73.61;99588.47;5126108;27;41978;-81
2022/11/27 14:34:27;;;;;;;9.77;7.13;;;;;;;7.96;74.14;99553.75;5093954;28;41717;-81
2022/11/27 14:36:55;;;;;;;9.13;7.50;;;;;;;7.98;73.72;99562.47;5093717;28;41105;-81
2022/11/27 14:39:25;;;;;;;10.13;7.33;;;;;;;7.97;74.00;99566.03;5111137;28;38944;-80
2022/11/27 14:41:57;;;;;;;9.90;7.93;;;;;;;7.91;74.19;99576.84;5094967;28;42865;-83
2022/11/27 14:44:26;;;;;;;9.27;8.13;;;;;;;7.88;74.38;99574.31;5093697;28;41845;-80
2022/11/27 14:46:55;;;;;;;11.33;8.03;;;;;;;7.76;74.50;99553.72;5127955;27;43323;-79
2022/11/27 14:49:27;;;;;;;12.27;7.83;;;;;;;7.69;75.04;99550.44;5076819;28;39399;-80
2022/11/27 14:51:58;;;;;;;8.53;7.23;;;;;;;7.67;74.95;99565.47;5076776;28;40338;-81
2022/11/27 14:54:28;;;;;;;10.60;7.73;;;;;;;7.53;75.46;99555.50;5110830;28;42822;-81
2022/11/27 14:56:57;;;;;;;10.63;7.93;;;;;;;7.41;75.60;99549.84;5093360;28;42857;-81
2022/11/27 14:59:26;;;;;;;9.50;8.20;;;;;;;7.38;75.68;99561.34;5076699;28;41873;-81
2022/11/27 15:02:00;;;;;;;11.00;7.97;;;;;;;7.21;76.46;99542.69;5093206;28;42174;-81
2022/11/27 15:04:29;;;;;;;11.47;7.73;;;;;;;7.12;76.65;99548.31;5076252;28;42117;-82
2022/11/27 15:06:58;;;;;;;9.57;7.60;;;;;;;6.82;77.09;99506.38;5093238;28;42195;-82
2022/11/27 15:09:28;;;;;;;8.20;7.30;;;;;;;7.11;76.98;99559.75;5093501;28;39837;-82
2022/11/27 15:11:59;;;;;;;10.97;8.60;;;;;;;7.02;77.33;99536.41;5076093;28;40301;-80
2022/11/27 15:14:29;;;;;;;10.43;8.47;;;;;;;6.92;77.83;99527.13;5093014;28;43789;-81
2022/11/27 15:16:58;;;;;;;10.60;8.50;;;;;;;6.85;77.87;99514.16;5110471;28;42006;-82
2022/11/27 15:19:30;;;;;;;9.70;7.33;;;;;;;6.75;78.31;99504.91;5093066;28;38963;-81
2022/11/27 15:21:58;;;;;;;11.90;8.70;;;;;;;6.54;78.94;99468.84;5091207;28;42664;-82
2022/11/27 15:24:32;;;;;;;11.47;8.97;;;;;;;6.54;79.31;99478.50;5076313;28;43757;-81
2022/11/27 15:27:21;;;;;;;11.10;8.93;;;;;;;6.43;80.33;99468.34;5109954;28;41232;-80
2022/11/27 15:30:11;;;;;;;11.03;8.50;;;;;;;6.27;80.97;99446.16;5110556;28;40095;-82
2022/11/27 15:32:51;;;;;;;14.97;9.37;;;;;;;6.18;81.14;99435.97;5092707;28;41856;-81
2022/11/27 15:35:25;;;;;;;11.60;8.97;;;;;;;6.27;81.06;99448.78;5109876;28;42775;-81
2022/11/27 15:37:55;;;;;;;11.90;8.63;;;;;;;6.22;82.08;99450.72;5093175;28;43004;-79
2022/11/27 15:40:34;;;;;;;10.60;8.33;;;;;;;6.20;81.95;99456.00;5109817;28;39950;-81
2022/11/27 15:43:03;;;;;;;11.80;8.90;;;;;;;6.20;82.06;99447.28;5092703;28;40609;-81
2022/11/27 15:45:32;;;;;;;12.57;8.47;;;;;;;6.17;82.11;99445.63;5075655;28;41942;-80
2022/11/27 15:48:01;;;;;;;13.47;8.40;;;;;;;6.15;82.35;99438.69;5109375;28;41428;-83
2022/11/27 15:50:30;;;;;;;10.73;7.67;;;;;;;6.13;82.66;99444.00;5092681;28;39050;-79
2022/11/27 15:52:59;;;;;;;10.80;8.33;;;;;;;6.10;82.59;99450.22;5092466;28;41409;-84
2022/11/27 15:55:27;;;;;;;11.17;8.80;;;;;;;6.10;82.85;99437.09;5092341;28;41893;-82
2022/11/27 15:57:55;;;;;;;11.00;8.10;;;;;;;6.08;82.53;99420.50;5092395;28;41585;-83
2022/11/27 16:00:26;;;;;;;11.77;8.53;;;;;;;6.10;82.61;99421.31;5075568;28;38856;-81
2022/11/27 16:02:59;;;;;;;10.37;8.27;;;;;;;6.09;82.27;99421.34;5109818;28;41092;-80
2022/11/27 16:05:26;;;;;;;12.03;7.90;;;;;;;5.94;82.62;99401.72;5075127;28;42162;-80
2022/11/27 16:07:54;;;;;;;9.80;7.83;;;;;;;5.94;82.37;99401.72;5075423;28;41398;-81
2022/11/27 16:10:22;;;;;;;9.03;7.90;;;;;;;5.63;82.70;99351.97;5075770;28;39978;-81
2022/11/27 16:12:53;;;;;;;10.73;8.43;;;;;;;5.97;82.56;99417.38;5092373;28;41969;-81
2022/11/27 16:15:21;;;;;;;12.67;8.67;;;;;;;5.95;83.08;99420.97;5075479;28;43105;-80
2022/11/27 16:17:50;;;;;;;8.87;7.80;;;;;;;5.93;82.75;99421.06;5075112;28;42857;-83
2022/11/27 16:20:19;;;;;;;10.57;8.17;;;;;;;5.92;82.68;99429.00;5091727;28;40112;-82
2022/11/27 16:22:46;;;;;;;11.70;8.87;;;;;;;5.85;82.21;99437.94;5075123;28;40611;-83
2022/11/27 16:25:17;;;;;;;10.00;8.47;;;;;;;6.02;82.22;99468.06;5091818;28;42744;-82
2022/11/27 16:27:44;;;;;;;9.60;8.23;;;;;;;5.92;82.45;99445.63;5093245;28;42360;-80
2022/11/27 16:30:13;;;;;;;9.93;8.73;;;;;;;5.90;82.49;99434.28;5075148;28;40391;-81
2022/11/27 16:32:41;;;;;;;11.93;8.60;;;;;;;5.96;82.27;99447.22;5075191;28;42163;-80
2022/11/27 16:35:10;;;;;;;11.13;9.70;;;;;;;5.83;82.36;99424.00;5058130;28;42235;-82
2022/11/27 16:37:42;;;;;;;9.73;8.63;;;;;;;6.03;82.08;99456.63;5103412;28;41712;-84
2022/11/27 16:40:10;;;;;;;13.03;10.20;;;;;;;5.79;82.01;99418.00;5073905;28;40410;-84
2022/11/27 16:42:38;;;;;;;11.17;9.67;;;;;;;5.93;82.17;99447.34;5072971;28;41142;-85
2022/11/27 16:55:34;;;;;;;10.83;8.93;;;;;;;6.06;81.94;99455.63;4952832;28;41801;-79
2022/11/27 16:58:02;;;;;;;11.87;9.30;;;;;;;6.02;82.08;99433.00;4937686;28;42762;-83
2022/11/27 17:00:30;;;;;;;9.80;8.80;;;;;;;5.68;82.08;99359.69;4962842;28;42785;-84
2022/11/27 17:02:58;;;;;;;12.73;10.13;;;;;;;6.08;82.60;99414.38;4992988;28;40994;-82
2022/11/27 17:05:26;;;;;;;12.37;10.07;;;;;;;5.97;82.79;99390.25;4978675;28;42417;-83
2022/11/27 17:07:54;;;;;;;14.43;11.17;;;;;;;5.95;82.72;99368.41;5045177;28;42713;-80
2022/11/27 17:10:22;;;;;;;16.00;11.57;;;;;;;5.90;82.80;99354.59;5015645;28;41169;-83
2022/11/27 17:12:51;;;;;;;14.23;11.40;;;;;;;5.88;82.91;99351.09;5031105;28;39969;-85
2022/11/27 17:15:19;;;;;;;12.27;10.43;;;;;;;5.97;83.16;99366.56;5015291;28;41892;-82
2022/11/27 17:17:47;;;;;;;13.20;10.30;;;;;;;6.00;82.98;99366.47;5032137;28;43522;-80
2022/11/27 17:20:16;;;;;;;11.00;9.17;;;;;;;6.01;82.83;99366.44;5013892;28;41265;-81
2022/11/27 17:22:44;;;;;;;12.93;10.33;;;;;;;5.87;82.98;99341.50;5020352;28;38964;-82
2022/11/27 17:25:12;;;;;;;12.17;9.80;;;;;;;6.02;82.97;99362.88;5024356;28;40724;-81
2022/11/27 17:27:40;;;;;;;14.13;10.60;;;;;;;5.89;83.21;99330.06;5079623;28;42953;-80
2022/11/27 17:30:10;;;;;;;13.73;11.17;;;;;;;6.11;82.92;99359.91;5082050;28;41501;-80
2022/11/27 17:32:38;;;;;;;14.70;10.27;;;;;;;6.02;83.14;99336.59;5082879;28;38773;-81
2022/11/27 17:35:07;;;;;;;14.67;10.67;;;;;;;5.99;83.21;99327.94;5072753;28;41134;-80
2022/11/27 17:37:35;;;;;;;15.83;11.03;;;;;;;5.75;83.50;99296.34;5090753;28;43565;-82
2022/11/27 17:40:03;;;;;;;14.60;11.40;;;;;;;5.64;83.42;99260.88;5076827;28;41012;-81
2022/11/27 17:42:31;;;;;;;13.33;10.73;;;;;;;6.05;83.70;99325.13;5076468;28;38977;-79
2022/11/27 17:44:59;;;;;;;13.40;9.70;;;;;;;6.00;83.74;99321.78;5089798;28;41770;-81
2022/11/27 17:47:28;;;;;;;12.60;10.20;;;;;;;5.93;83.47;99310.66;5075802;28;42129;-80
